Time;durP1;ratioP1;P1;durP2;ratioP2;P2;SDS_P1;SDS_P2;PMS_P1;PMS_P2;Temp;Humidity;BMP_temperature;BMP_pressure;BME280_temperature;BME280_humidity;BME280_pressure;Samples;Min_cycle;Max_cycle;Signal;HPM_P1;HPM_P2
2023/08/21 00:01:55;;;;;;;1.92;1.77;;;;;;;22.62;100.00;100322.78;4821711;29;20058;-91
2023/08/21 00:04:21;;;;;;;1.83;1.65;;;;;;;22.66;100.00;100337.44;4837400;29;20053;-91
2023/08/21 00:06:46;;;;;;;2.55;2.15;;;;;;;22.70;100.00;100340.81;4820337;29;20124;-91
2023/08/21 00:09:12;;;;;;;2.25;1.83;;;;;;;22.70;100.00;100340.81;4819739;29;20050;-90
2023/08/21 00:11:37;;;;;;;1.83;1.33;;;;;;;22.66;100.00;100328.97;4823617;29;20048;-90
2023/08/21 00:14:03;;;;;;;3.25;2.03;;;;;;;22.63;100.00;100332.81;4814228;29;20111;-92
2023/08/21 00:16:29;;;;;;;1.00;0.98;;;;;;;22.62;100.00;100317.13;4816670;29;20041;-92
2023/08/21 00:18:54;;;;;;;3.20;1.23;;;;;;;22.64;100.00;100337.19;4829398;29;20041;-92
2023/08/21 00:21:20;;;;;;;2.17;1.73;;;;;;;22.59;100.00;100321.00;4834060;29;20050;-91
2023/08/21 00:23:46;;;;;;;1.65;1.38;;;;;;;22.64;100.00;100321.00;4819382;29;20053;-91
2023/08/21 00:26:12;;;;;;;2.97;1.00;;;;;;;22.59;100.00;100326.66;4835676;29;20056;-90
2023/08/21 00:28:38;;;;;;;3.70;2.00;;;;;;;22.59;100.00;100335.13;4837418;29;20052;-90
2023/08/21 00:31:04;;;;;;;1.35;1.02;;;;;;;22.56;100.00;100336.16;4830655;29;20038;-92
2023/08/21 00:33:31;;;;;;;3.50;2.20;;;;;;;22.51;100.00;100334.09;4823037;29;20106;-92
2023/08/21 00:35:57;;;;;;;3.75;2.55;;;;;;;22.42;100.00;100337.94;4812016;29;20034;-91
2023/08/21 00:38:23;;;;;;;1.63;1.52;;;;;;;22.31;100.00;100318.91;4819373;29;20069;-90
2023/08/21 00:40:49;;;;;;;3.08;2.53;;;;;;;22.27;100.00;100338.19;4813352;29;20490;-91
2023/08/21 00:43:14;;;;;;;2.25;2.03;;;;;;;22.18;100.00;100332.75;4810015;29;20053;-91
2023/08/21 00:45:42;;;;;;;1.95;1.60;;;;;;;22.16;100.00;100334.56;4820355;29;20046;-92
2023/08/21 00:48:08;;;;;;;1.50;1.40;;;;;;;22.16;100.00;100331.75;4824910;29;20080;-92
2023/08/21 00:50:34;;;;;;;11.15;2.97;;;;;;;22.18;100.00;100329.16;4816352;29;20113;-91
2023/08/21 00:53:00;;;;;;;2.33;2.13;;;;;;;22.14;100.00;100320.94;4821393;29;20621;-93
2023/08/21 00:55:26;;;;;;;3.13;1.90;;;;;;;22.13;100.00;100321.44;4821073;29;20057;-92
2023/08/21 00:57:51;;;;;;;2.35;1.30;;;;;;;22.19;100.00;100327.88;4818077;29;20452;-92
2023/08/21 01:00:17;;;;;;;1.75;1.30;;;;;;;22.20;100.00;100327.34;4829758;29;20045;-92
2023/08/21 01:02:43;;;;;;;1.77;1.17;;;;;;;22.20;100.00;100323.78;4813238;29;20030;-92
2023/08/21 01:05:08;;;;;;;1.35;1.25;;;;;;;22.19;100.00;100319.41;4828699;29;20042;-91
2023/08/21 01:07:40;;;;;;;3.33;2.53;;;;;;;22.20;100.00;100330.19;4846341;29;20034;-93
2023/08/21 01:10:21;;;;;;;2.28;1.48;;;;;;;22.18;100.00;100324.28;4838937;29;20117;-92
2023/08/21 01:13:07;;;;;;;2.58;2.13;;;;;;;22.11;100.00;100321.97;4834680;29;20132;-91
2023/08/21 01:15:33;;;;;;;4.72;2.35;;;;;;;22.05;100.00;100321.16;4843359;29;20049;-90
2023/08/21 01:17:59;;;;;;;3.17;2.30;;;;;;;21.98;100.00;100321.66;4819688;29;20105;-90
2023/08/21 01:20:25;;;;;;;3.40;1.83;;;;;;;21.90;100.00;100325.47;4834569;29;20050;-90
2023/08/21 01:22:51;;;;;;;1.65;1.55;;;;;;;21.88;100.00;100335.19;4827435;29;20169;-90
2023/08/21 01:25:17;;;;;;;3.92;2.60;;;;;;;21.85;100.00;100324.94;4808899;29;20042;-91
2023/08/21 01:27:44;;;;;;;9.02;3.35;;;;;;;;;;4835769;29;20038;-90
2023/08/21 01:30:10;;;;;;;3.45;1.92;;;;;;;21.84;100.00;100334.69;4816886;29;20107;-91
2023/08/21 01:32:48;;;;;;;1.52;1.33;;;;;;;21.84;100.00;100322.59;4826546;29;20180;-92
2023/08/21 01:35:14;;;;;;;2.33;2.03;;;;;;;21.82;100.00;100330.81;4818316;29;20104;-91
2023/08/21 01:37:39;;;;;;;2.25;2.05;;;;;;;;;;4809095;29;20049;-91
2023/08/21 01:40:06;;;;;;;1.75;1.58;;;;;;;21.82;100.00;100328.00;4830617;29;20048;-91
2023/08/21 01:42:31;;;;;;;6.05;2.55;;;;;;;21.81;100.00;100334.91;4825626;29;20041;-91
2023/08/21 01:44:57;;;;;;;3.85;2.67;;;;;;;21.83;100.00;100335.19;4824296;29;20052;-91
2023/08/21 01:47:22;;;;;;;1.65;1.17;;;;;;;21.87;100.00;100327.25;4825615;29;20072;-91
2023/08/21 01:49:52;;;;;;;3.70;2.15;;;;;;;21.88;100.00;100338.03;4822615;29;20042;-93
2023/08/21 01:52:18;;;;;;;1.55;1.45;;;;;;;21.86;100.00;100331.34;4832100;29;20049;-93
2023/08/21 01:54:43;;;;;;;2.78;1.83;;;;;;;21.84;100.00;100329.03;4837815;29;20109;-92
2023/08/21 01:57:09;;;;;;;2.47;2.28;;;;;;;21.74;100.00;100330.53;4827675;29;20425;-92
2023/08/21 01:59:35;;;;;;;3.72;1.90;;;;;;;21.76;100.00;100330.78;4823182;29;20100;-92
2023/08/21 02:02:00;;;;;;;2.47;2.20;;;;;;;21.71;100.00;100331.56;4821343;29;20053;-93
2023/08/21 02:04:26;;;;;;;2.25;1.73;;;;;;;21.69;100.00;100333.34;4851763;29;20129;-92
2023/08/21 02:06:51;;;;;;;2.72;1.85;;;;;;;21.65;100.00;100327.16;4829420;29;20050;-92
2023/08/21 02:09:17;;;;;;;1.85;1.00;;;;;;;21.73;100.00;100333.84;4823041;29;20422;-92
2023/08/21 02:11:43;;;;;;;1.55;1.45;;;;;;;21.69;100.00;100327.69;4817896;29;20054;-92
2023/08/21 02:14:08;;;;;;;1.58;1.48;;;;;;;21.71;100.00;100331.56;4847479;29;20491;-91
2023/08/21 02:16:34;;;;;;;4.10;2.17;;;;;;;21.65;100.00;100332.81;4811021;29;20199;-92
2023/08/21 02:18:59;;;;;;;3.38;1.83;;;;;;;21.64;100.00;100322.78;4835729;29;20052;-92
2023/08/21 02:21:25;;;;;;;3.10;2.17;;;;;;;21.60;100.00;100327.91;4840506;29;20130;-91
2023/08/21 02:23:50;;;;;;;1.15;1.00;;;;;;;21.62;100.00;100328.19;4835056;29;20136;-92
2023/08/21 02:26:16;;;;;;;0.95;0.95;;;;;;;21.62;100.00;100316.88;4822388;29;20046;-92
2023/08/21 02:28:43;;;;;;;2.00;1.55;;;;;;;21.62;100.00;100323.31;4829957;29;20046;-93
2023/08/21 02:31:12;;;;;;;2.85;1.70;;;;;;;21.60;100.00;100327.91;4833809;29;20069;-93
2023/08/21 02:33:38;;;;;;;1.20;1.10;;;;;;;21.57;100.00;100326.09;4822081;29;20045;-92
2023/08/21 02:36:04;;;;;;;2.42;2.22;;;;;;;21.53;100.00;100322.72;4808404;29;20046;-92
2023/08/21 02:38:29;;;;;;;2.70;2.22;;;;;;;21.52;100.00;100329.66;4821333;29;20417;-92
2023/08/21 02:40:56;;;;;;;1.20;1.08;;;;;;;21.44;100.00;100325.75;4800110;29;20144;-92
2023/08/21 02:43:22;;;;;;;2.63;1.35;;;;;;;21.39;100.00;100325.22;4805563;29;20079;-92
2023/08/21 02:45:47;;;;;;;2.10;1.60;;;;;;;21.40;100.00;100328.81;4835396;29;20533;-92
2023/08/21 02:48:13;;;;;;;2.08;1.77;;;;;;;21.39;100.00;100327.31;4826233;29;20053;-92
2023/08/21 02:50:38;;;;;;;2.95;2.58;;;;;;;21.37;100.00;100324.97;4821321;29;20148;-92
2023/08/21 02:53:04;;;;;;;1.58;1.48;;;;;;;21.36;100.00;100317.00;4817314;29;20063;-93
2023/08/21 02:55:29;;;;;;;1.50;1.40;;;;;;;21.37;100.00;100324.97;4816878;29;20185;-92
2023/08/21 02:57:55;;;;;;;1.52;1.42;;;;;;;21.34;100.00;100319.56;4822069;29;20053;-92
2023/08/21 03:00:20;;;;;;;2.15;1.90;;;;;;;21.32;100.00;100322.09;4806277;29;20042;-93
2023/08/21 03:02:46;;;;;;;1.48;1.17;;;;;;;21.30;100.00;100319.03;4831005;29;20184;-91
2023/08/21 03:05:13;;;;;;;2.25;1.60;;;;;;;21.28;100.00;100318.75;4822336;29;20050;-92
2023/08/21 03:07:39;;;;;;;2.33;1.33;;;;;;;21.26;100.00;100318.50;4799900;29;20068;-93
2023/08/21 03:10:05;;;;;;;1.73;1.52;;;;;;;21.25;100.00;100314.91;4825308;29;20410;-92
2023/08/21 03:12:31;;;;;;;2.30;2.10;;;;;;;21.25;100.00;100306.44;4819866;29;20088;-93
2023/08/21 03:14:56;;;;;;;3.05;2.25;;;;;;;21.27;100.00;100311.59;4824341;29;20078;-93
2023/08/21 03:17:24;;;;;;;1.63;1.52;;;;;;;21.22;100.00;100309.50;4808595;29;20140;-93
2023/08/21 03:19:49;;;;;;;2.33;1.77;;;;;;;21.25;100.00;100312.06;4807950;29;20038;-92
2023/08/21 03:22:15;;;;;;;2.28;1.98;;;;;;;21.28;100.00;100313.88;4825470;29;20508;-92
2023/08/21 03:24:41;;;;;;;3.75;2.90;;;;;;;21.29;100.00;100318.25;4802958;29;20082;-91
2023/08/21 03:27:07;;;;;;;7.07;2.72;;;;;;;21.31;100.00;100315.69;4812583;29;20047;-91
2023/08/21 03:29:33;;;;;;;6.18;2.55;;;;;;;21.28;100.00;100311.06;4817104;29;20084;-92
2023/08/21 03:31:58;;;;;;;2.45;1.30;;;;;;;21.28;100.00;100321.56;4816152;29;20098;-93
2023/08/21 03:34:24;;;;;;;2.58;2.22;;;;;;;21.24;100.00;100304.88;4826306;29;20525;-92
2023/08/21 03:36:54;;;;;;;2.75;2.15;;;;;;;21.20;100.00;100315.63;4822397;29;20042;-93
2023/08/21 03:39:19;;;;;;;1.42;1.33;;;;;;;21.16;100.00;100315.09;4833922;29;20536;-92
2023/08/21 03:41:46;;;;;;;4.03;2.13;;;;;;;21.18;100.00;100323.06;4830934;29;20048;-92
2023/08/21 03:44:12;;;;;;;2.35;1.98;;;;;;;21.11;100.00;100312.97;4823387;29;20054;-92
2023/08/21 03:46:38;;;;;;;2.42;1.88;;;;;;;21.15;100.00;100305.06;4821336;29;20042;-92
2023/08/21 03:49:03;;;;;;;1.35;1.10;;;;;;;21.12;100.00;100317.38;4802804;29;20053;-92
2023/08/21 03:51:29;;;;;;;3.33;1.95;;;;;;;21.14;100.00;100323.31;4828631;29;20038;-93
2023/08/21 03:53:55;;;;;;;2.95;2.65;;;;;;;21.11;100.00;100309.41;4836832;29;20052;-92
2023/08/21 03:56:23;;;;;;;3.25;1.45;;;;;;;21.03;100.00;100319.59;4804282;29;20085;-93
2023/08/21 03:58:49;;;;;;;2.20;1.90;;;;;;;21.05;100.00;100320.63;4815316;29;20720;-92
2023/08/21 04:01:14;;;;;;;2.28;1.75;;;;;;;21.02;100.00;100316.00;4821542;29;20045;-93
2023/08/21 04:03:40;;;;;;;2.42;2.22;;;;;;;20.96;100.00;100318.00;4803968;29;20053;-92
2023/08/21 04:06:05;;;;;;;1.67;1.58;;;;;;;20.92;100.00;100312.59;4811395;29;20045;-93
2023/08/21 04:08:33;;;;;;;2.60;1.67;;;;;;;20.93;100.00;100310.56;4807330;29;20041;-95
2023/08/21 04:10:59;;;;;;;1.92;1.55;;;;;;;20.82;100.00;100308.44;4825638;29;20045;-94
2023/08/21 04:13:25;;;;;;;1.85;1.60;;;;;;;20.82;100.00;100319.72;4820688;29;20061;-93
2023/08/21 04:15:53;;;;;;;2.03;1.70;;;;;;;20.79;100.00;100314.28;4814404;29;20456;-93
2023/08/21 04:18:19;;;;;;;3.17;2.17;;;;;;;20.77;100.00;100316.84;4823595;29;20972;-92
2023/08/21 04:20:44;;;;;;;3.38;1.48;;;;;;;20.76;100.00;100309.66;4820755;29;20132;-92
2023/08/21 04:23:10;;;;;;;2.08;1.95;;;;;;;20.74;100.00;100309.41;4798065;29;20056;-91
2023/08/21 04:25:35;;;;;;;2.33;2.05;;;;;;;20.69;100.00;100310.13;4831527;29;20054;-93
2023/08/21 04:28:01;;;;;;;1.73;1.63;;;;;;;20.71;100.00;100304.75;4825707;29;20125;-92
2023/08/21 04:30:27;;;;;;;2.42;2.22;;;;;;;20.73;100.00;100310.66;4815776;29;20140;-92
2023/08/21 04:33:01;;;;;;;1.73;1.33;;;;;;;20.73;100.00;100308.63;4822875;29;20524;-92
2023/08/21 04:35:52;;;;;;;4.45;2.92;;;;;;;20.75;100.00;100302.47;4829145;29;20517;-91
2023/08/21 04:38:18;;;;;;;4.13;1.90;;;;;;;20.79;100.00;100295.31;4823450;29;20149;-92
2023/08/21 04:40:43;;;;;;;2.08;1.85;;;;;;;20.84;100.00;100296.66;4817569;29;20126;-92
2023/08/21 04:43:09;;;;;;;3.42;2.90;;;;;;;20.91;100.00;100296.94;4823564;29;20042;-93
2023/08/21 04:45:34;;;;;;;2.05;1.77;;;;;;;20.94;100.00;100304.44;4827136;29;20499;-92
2023/08/21 04:48:00;;;;;;;2.20;2.00;;;;;;;20.92;100.00;100303.38;4834848;29;20041;-92
2023/08/21 04:50:26;;;;;;;1.35;1.25;;;;;;;21.02;100.00;100327.28;4806405;29;20399;-92
2023/08/21 04:52:51;;;;;;;1.67;1.52;;;;;;;20.97;100.00;100313.13;4836146;29;20062;-92
2023/08/21 04:55:17;;;;;;;2.10;1.85;;;;;;;21.03;100.00;100320.34;4803264;29;20466;-93
2023/08/21 04:57:43;;;;;;;2.28;2.03;;;;;;;21.01;100.00;100316.50;4812068;29;20049;-92
2023/08/21 05:00:11;;;;;;;1.65;1.35;;;;;;;21.11;100.00;100321.44;4801285;29;20042;-93
2023/08/21 05:02:39;;;;;;;2.85;2.17;;;;;;;21.12;100.00;100317.38;4826200;29;20094;-91
2023/08/21 05:05:08;;;;;;;2.55;1.65;;;;;;;21.27;100.00;100332.09;4831804;29;20050;-92
2023/08/21 05:07:34;;;;;;;1.90;1.80;;;;;;;21.40;100.00;100335.25;4833229;29;20038;-92
2023/08/21 05:10:01;;;;;;;1.50;1.40;;;;;;;21.52;100.00;100329.66;4823896;29;20046;-93
2023/08/21 05:12:29;;;;;;;0.90;0.90;;;;;;;21.65;100.00;100321.50;4824325;29;20470;-92
2023/08/21 05:14:54;;;;;;;4.55;2.10;;;;;;;21.83;100.00;100338.78;4826991;29;20089;-93
2023/08/21 05:17:26;;;;;;;2.13;1.92;;;;;;;21.96;100.00;100331.94;4809358;29;20050;-92
2023/08/21 05:19:52;;;;;;;3.90;2.13;;;;;;;22.11;100.00;100336.09;4810535;29;20116;-92
2023/08/21 05:22:18;;;;;;;15.07;2.53;;;;;;;22.37;100.00;100347.19;4813476;29;20049;-93
2023/08/21 05:24:44;;;;;;;3.13;0.90;;;;;;;22.64;100.00;100342.84;4817743;29;20110;-92
2023/08/21 05:27:09;;;;;;;3.45;1.90;;;;;;;22.80;100.00;100339.28;4793273;29;20046;-93
2023/08/21 05:29:35;;;;;;;4.47;3.15;;;;;;;22.92;100.00;100343.66;4831030;29;20072;-92
2023/08/21 05:32:01;;;;;;;5.38;2.58;;;;;;;23.12;100.00;100351.88;4800022;29;20033;-93
2023/08/21 05:34:28;;;;;;;1.63;1.42;;;;;;;23.29;100.00;100356.72;4815514;29;20042;-92
2023/08/21 05:36:56;;;;;;;1.67;1.52;;;;;;;23.47;100.00;100359.03;4818262;29;20038;-91
2023/08/21 05:39:22;;;;;;;1.98;1.08;;;;;;;23.67;100.00;100364.38;4811936;29;20038;-91
2023/08/21 05:41:49;;;;;;;2.03;1.48;;;;;;;23.89;100.00;100363.53;4829212;29;20042;-93
2023/08/21 05:44:14;;;;;;;1.77;1.45;;;;;;;24.00;100.00;100358.56;4799071;29;20479;-91
2023/08/21 05:46:40;;;;;;;3.03;2.20;;;;;;;24.15;100.00;100372.44;4821894;29;20086;-92
2023/08/21 05:49:06;;;;;;;1.50;1.40;;;;;;;24.28;100.00;100354.84;4805989;29;20048;-90
2023/08/21 05:51:32;;;;;;;1.58;1.48;;;;;;;24.47;100.00;100372.75;4834930;29;20500;-91
2023/08/21 05:53:57;;;;;;;3.08;2.63;;;;;;;24.63;100.00;100363.38;4818735;29;20050;-92
2023/08/21 05:56:23;;;;;;;2.97;2.15;;;;;;;24.83;100.00;100360.09;4819987;29;20550;-90
2023/08/21 05:58:50;;;;;;;1.80;1.63;;;;;;;25.05;100.00;100367.69;4839876;29;20128;-91
2023/08/21 06:01:16;;;;;;;2.72;1.73;;;;;;;25.21;100.00;100363.94;4818431;29;20053;-92
2023/08/21 06:03:43;;;;;;;2.40;1.63;;;;;;;25.41;100.00;100368.38;4823167;29;20087;-92
2023/08/21 06:06:28;;;;;;;1.60;1.50;;;;;;;25.62;100.00;100366.63;4826547;29;20110;-92
2023/08/21 06:08:53;;;;;;;1.50;1.33;;;;;;;25.73;100.00;100371.41;4825505;29;20046;-91
2023/08/21 06:11:19;;;;;;;10.23;2.58;;;;;;;25.98;100.00;100370.84;4827067;29;20036;-91
2023/08/21 06:13:44;;;;;;;2.75;2.47;;;;;;;26.16;100.00;100374.25;4822057;29;20042;-92
2023/08/21 06:16:12;;;;;;;1.08;0.93;;;;;;;26.25;100.00;100379.56;4838422;29;20082;-92
2023/08/21 06:18:38;;;;;;;1.77;1.63;;;;;;;26.38;100.00;100380.41;4809583;29;20042;-92
2023/08/21 06:21:04;;;;;;;2.28;1.95;;;;;;;26.49;100.00;100370.94;4829002;29;20487;-92
2023/08/21 06:23:30;;;;;;;2.83;2.33;;;;;;;26.42;100.00;100383.72;4825522;29;20057;-91
2023/08/21 06:25:55;;;;;;;3.35;1.77;;;;;;;26.41;100.00;100387.09;4823628;29;20037;-93
2023/08/21 06:28:22;;;;;;;2.13;1.77;;;;;;;26.46;100.00;100386.25;4832685;29;20052;-93
2023/08/21 06:30:55;;;;;;;2.60;2.17;;;;;;;26.66;100.00;100387.75;4819618;29;20053;-94
2023/08/21 06:33:21;;;;;;;3.92;1.90;;;;;;;26.62;100.00;100378.75;4822393;29;20497;-95
2023/08/21 06:35:46;;;;;;;1.88;1.27;;;;;;;26.68;100.00;100388.75;4811101;29;20049;-94
2023/08/21 06:38:12;;;;;;;2.42;2.17;;;;;;;26.77;100.00;100391.19;4826089;29;20045;-93
2023/08/21 06:40:37;;;;;;;2.75;2.50;;;;;;;26.59;100.00;100391.22;4818413;29;20050;-92
2023/08/21 06:43:05;;;;;;;1.70;1.60;;;;;;;26.60;100.00;100379.31;4837512;29;20042;-93
2023/08/21 06:45:33;;;;;;;1.42;1.33;;;;;;;26.86;100.00;100387.97;4805964;29;20128;-94
2023/08/21 06:48:01;;;;;;;6.28;1.50;;;;;;;26.93;100.00;100382.97;4825426;29;20053;-92
2023/08/21 06:50:26;;;;;;;1.58;1.48;;;;;;;27.31;100.00;100392.91;4841521;29;20137;-92
2023/08/21 06:52:52;;;;;;;2.30;1.35;;;;;;;27.55;100.00;100392.75;4825873;29;20507;-92
2023/08/21 06:55:17;;;;;;;1.75;1.65;;;;;;;27.57;100.00;100390.13;4838874;29;20589;-91
2023/08/21 06:57:43;;;;;;;2.10;1.90;;;;;;;27.92;100.00;100385.28;4828445;29;20046;-91
2023/08/21 07:00:09;;;;;;;2.17;1.95;;;;;;;28.22;100.00;100388.56;4825497;29;20073;-91
2023/08/21 07:02:34;;;;;;;2.97;1.90;;;;;;;28.36;97.75;100384.34;4840467;29;20418;-91
2023/08/21 07:05:00;;;;;;;2.47;1.67;;;;;;;28.54;98.24;100383.44;4822855;29;20050;-91
2023/08/21 07:07:26;;;;;;;1.80;1.67;;;;;;;28.48;99.72;100382.78;4840022;29;20037;-92
2023/08/21 07:09:52;;;;;;;2.30;1.90;;;;;;;28.56;100.00;100385.72;4813369;29;20077;-92
2023/08/21 07:12:18;;;;;;;2.75;2.13;;;;;;;28.67;98.71;100380.50;4818146;29;20050;-92
2023/08/21 07:14:43;;;;;;;1.85;1.42;;;;;;;28.64;99.43;100375.16;4840663;29;20118;-91
2023/08/21 07:17:09;;;;;;;3.15;2.33;;;;;;;28.76;99.00;100378.53;4822418;29;20431;-93
2023/08/21 07:19:35;;;;;;;2.00;1.58;;;;;;;28.76;97.88;100378.53;4822733;29;20061;-92
2023/08/21 07:22:00;;;;;;;3.20;1.80;;;;;;;28.75;95.36;100374.94;4809830;29;20065;-92
2023/08/21 07:24:26;;;;;;;2.00;1.88;;;;;;;28.83;96.16;100383.56;4840729;29;20155;-92
2023/08/21 07:26:52;;;;;;;3.42;2.40;;;;;;;29.02;93.30;100387.75;4840160;29;20049;-92
2023/08/21 07:29:17;;;;;;;5.30;1.67;;;;;;;29.34;87.50;100378.88;4820713;29;20069;-92
2023/08/21 07:31:43;;;;;;;1.27;1.17;;;;;;;29.72;84.50;100389.81;4808901;29;20550;-91
2023/08/21 07:34:08;;;;;;;2.28;1.75;;;;;;;29.73;87.64;100382.75;4823548;29;20041;-93
2023/08/21 07:36:34;;;;;;;1.92;1.55;;;;;;;29.84;84.04;100385.31;4822841;29;20050;-91
2023/08/21 07:38:59;;;;;;;1.35;1.13;;;;;;;30.16;83.96;100394.28;4826308;29;20045;-92
2023/08/21 07:41:25;;;;;;;1.33;1.25;;;;;;;30.29;79.16;100391.25;4813531;29;20115;-92
2023/08/21 07:43:50;;;;;;;5.13;2.50;;;;;;;30.50;75.26;100391.94;4816160;29;20065;-91
2023/08/21 07:46:18;;;;;;;2.13;1.35;;;;;;;30.76;75.62;100398.69;4824975;29;20563;-93
2023/08/21 07:48:46;;;;;;;4.25;1.23;;;;;;;30.68;75.90;100390.06;4820659;29;20045;-92
2023/08/21 07:51:12;;;;;;;2.90;1.58;;;;;;;30.60;75.97;100391.38;4797468;29;20407;-93
2023/08/21 07:53:38;;;;;;;2.42;2.22;;;;;;;30.94;74.18;100397.53;4813232;29;20601;-92
2023/08/21 07:56:04;;;;;;;1.85;1.25;;;;;;;30.88;72.15;100388.38;4821235;29;20210;-91
2023/08/21 07:58:30;;;;;;;2.15;1.95;;;;;;;31.07;74.41;100394.53;4809578;29;20102;-92
2023/08/21 08:00:56;;;;;;;1.52;1.42;;;;;;;31.25;69.30;100399.13;4815066;29;20049;-92
2023/08/21 08:03:22;;;;;;;1.42;1.33;;;;;;;31.28;71.20;100397.22;4821303;29;20144;-91
2023/08/21 08:05:47;;;;;;;2.17;1.98;;;;;;;31.34;70.99;100394.94;4816700;29;20060;-93
2023/08/21 08:08:13;;;;;;;3.53;1.52;;;;;;;31.44;69.72;100399.50;4810748;29;20077;-92
2023/08/21 08:10:39;;;;;;;1.38;1.27;;;;;;;31.74;67.36;100401.59;4812259;29;20125;-91
2023/08/21 08:13:06;;;;;;;4.50;1.55;;;;;;;31.68;66.21;100403.13;4819432;29;20137;-93
2023/08/21 08:15:31;;;;;;;1.50;1.40;;;;;;;31.68;65.48;100400.25;4815927;29;20038;-93
2023/08/21 08:17:57;;;;;;;1.63;1.52;;;;;;;31.85;61.00;100394.69;4824105;29;20110;-91
2023/08/21 08:20:23;;;;;;;2.05;1.67;;;;;;;32.04;60.54;100400.72;4809361;29;20054;-92
2023/08/21 08:22:48;;;;;;;2.30;1.58;;;;;;;32.05;60.05;100393.66;4836324;29;20073;-93
2023/08/21 08:25:14;;;;;;;0.90;0.88;;;;;;;32.32;56.71;100399.69;4831385;29;20137;-92
2023/08/21 08:27:40;;;;;;;6.97;2.38;;;;;;;32.06;55.39;100389.44;4829429;29;20075;-93
2023/08/21 08:30:06;;;;;;;1.23;1.13;;;;;;;32.29;55.25;100395.88;4816844;29;20057;-93
2023/08/21 08:32:32;;;;;;;1.85;1.70;;;;;;;32.19;55.77;100368.38;4821637;29;20049;-92
2023/08/21 08:34:58;;;;;;;1.02;0.95;;;;;;;32.59;57.19;100394.97;4827953;29;20374;-93
2023/08/21 08:37:23;;;;;;;3.72;2.17;;;;;;;32.87;54.58;100391.00;4834025;29;20054;-91
2023/08/21 08:39:49;;;;;;;1.73;1.20;;;;;;;33.05;53.63;100392.56;4812314;29;20514;-92
2023/08/21 08:42:16;;;;;;;1.08;1.08;;;;;;;33.43;49.12;100388.63;4841570;29;20498;-93
2023/08/21 08:44:42;;;;;;;2.03;1.25;;;;;;;33.53;47.28;100380.84;4815638;29;20041;-94
2023/08/21 08:47:10;;;;;;;1.20;1.02;;;;;;;33.16;47.92;100366.25;4825752;29;20053;-94
2023/08/21 08:49:39;;;;;;;2.17;1.92;;;;;;;33.61;48.75;100399.56;4832482;29;20049;-94
2023/08/21 08:52:05;;;;;;;1.73;1.63;;;;;;;33.92;48.29;100387.75;4826546;29;20049;-94
2023/08/21 08:54:31;;;;;;;1.20;1.10;;;;;;;33.71;46.00;100379.56;4834359;29;20521;-95
2023/08/21 08:56:58;;;;;;;2.10;1.48;;;;;;;33.70;46.72;100366.50;4833700;29;20068;-94
2023/08/21 08:59:24;;;;;;;0.93;0.93;;;;;;;33.89;43.03;100378.19;4823666;29;20078;-93
2023/08/21 09:01:49;;;;;;;1.45;1.35;;;;;;;33.66;42.17;100369.06;4808225;29;20042;-94
2023/08/21 09:04:15;;;;;;;1.38;1.27;;;;;;;33.72;44.15;100395.47;4838386;29;20238;-95
2023/08/21 09:06:41;;;;;;;1.13;1.08;;;;;;;33.74;45.57;100378.34;4807868;29;20199;-93
2023/08/21 09:09:10;;;;;;;1.80;1.70;;;;;;;34.22;44.57;100387.41;4823022;29;20414;-93
2023/08/21 09:11:36;;;;;;;1.35;1.25;;;;;;;34.24;42.52;100390.47;4823859;29;20065;-95
2023/08/21 09:14:02;;;;;;;1.33;1.23;;;;;;;34.25;42.16;100382.59;4824805;29;20045;-94
2023/08/21 09:16:27;;;;;;;0.88;0.88;;;;;;;34.43;41.19;100373.31;4822291;29;20546;-93
2023/08/21 09:18:56;;;;;;;1.90;1.58;;;;;;;34.48;39.51;100383.03;4819574;29;20049;-94
2023/08/21 09:21:23;;;;;;;1.17;0.93;;;;;;;34.46;40.07;100377.09;4807495;29;20038;-94
2023/08/21 09:23:56;;;;;;;1.80;1.70;;;;;;;34.47;38.61;100376.53;4821686;29;20046;-94
2023/08/21 09:26:21;;;;;;;;;;;;;;;34.54;39.31;100400.81;4820250;29;20050;-95
2023/08/21 09:28:51;;;;;;;1.33;1.23;;;;;;;34.64;38.95;100390.09;4824893;29;19927;-93
2023/08/21 09:31:30;;;;;;;1.15;1.08;;;;;;;34.78;39.30;100379.72;4810298;29;20141;-92
2023/08/21 09:33:57;;;;;;;1.52;1.42;;;;;;;34.85;39.93;100383.88;4840925;29;20054;-92
2023/08/21 09:36:24;;;;;;;1.50;1.35;;;;;;;34.71;39.34;100369.09;4811343;29;20053;-94
2023/08/21 09:38:52;;;;;;;1.40;1.10;;;;;;;34.43;37.22;100376.19;4823863;29;20034;-92
2023/08/21 09:41:21;;;;;;;1.27;1.15;;;;;;;34.36;37.66;100370.53;4832217;29;20129;-92
2023/08/21 09:43:53;;;;;;;0.70;0.70;;;;;;;34.47;39.16;100372.88;4822896;29;20460;-92
2023/08/21 09:46:26;;;;;;;2.28;2.08;;;;;;;34.36;37.45;100361.91;4823075;29;20060;-93
2023/08/21 09:48:53;;;;;;;1.08;1.05;;;;;;;34.25;37.20;100357.44;4834648;29;20042;-94
2023/08/21 09:51:19;;;;;;;1.80;1.67;;;;;;;34.50;37.59;100363.03;4849026;29;20057;-95
2023/08/21 09:53:46;;;;;;;0.80;0.80;;;;;;;34.60;36.70;100346.56;4830012;29;20050;-92
2023/08/21 09:56:12;;;;;;;1.52;1.42;;;;;;;34.78;38.16;100336.50;4812757;29;20542;-94
2023/08/21 09:58:38;;;;;;;2.50;2.30;;;;;;;34.60;37.98;100341.56;4792234;29;20047;-95
2023/08/21 10:01:14;;;;;;;2.25;1.92;;;;;;;35.01;37.68;100339.78;4798163;29;20055;-94
2023/08/21 10:03:40;;;;;;;2.58;1.70;;;;;;;35.39;37.92;100347.03;4799714;29;20123;-94
2023/08/21 10:06:08;;;;;;;1.58;1.42;;;;;;;35.62;35.80;100347.38;4788021;29;20504;-94
2023/08/21 10:08:39;;;;;;;1.67;1.25;;;;;;;35.81;37.61;100361.84;4818020;29;20074;-93
2023/08/21 10:11:24;;;;;;;1.17;1.08;;;;;;;35.68;37.56;100370.94;4808520;29;20077;-94
2023/08/21 10:13:51;;;;;;;1.40;1.30;;;;;;;35.77;36.62;100350.00;4818022;29;20050;-93
2023/08/21 10:16:17;;;;;;;2.35;2.03;;;;;;;36.03;36.86;100347.56;4807680;29;20046;-92
2023/08/21 10:18:45;;;;;;;2.80;1.63;;;;;;;35.97;36.42;100363.03;4816471;29;20483;-93
2023/08/21 10:21:18;;;;;;;1.50;1.10;;;;;;;35.82;36.17;100357.59;4808092;29;20065;-95
2023/08/21 10:23:48;;;;;;;2.63;2.08;;;;;;;35.43;36.69;100332.91;4821866;29;20054;-91
2023/08/21 10:26:15;;;;;;;1.58;1.48;;;;;;;35.63;36.00;100346.03;4819166;29;20053;-92
2023/08/21 10:28:54;;;;;;;1.10;1.08;;;;;;;36.22;36.92;100359.09;4817610;29;20046;-92
2023/08/21 10:31:33;;;;;;;1.83;1.40;;;;;;;36.45;35.77;100365.88;4811042;29;20527;-93
2023/08/21 10:34:00;;;;;;;1.40;1.30;;;;;;;36.35;35.13;100355.72;4815304;29;20054;-92
2023/08/21 10:37:05;;;;;;;0.73;0.73;;;;;;;36.39;35.84;100362.56;4817105;29;20145;-95
2023/08/21 10:39:33;;;;;;;1.75;1.23;;;;;;;36.60;33.71;100364.06;4801368;29;20050;-93
2023/08/21 10:42:03;;;;;;;1.25;1.15;;;;;;;36.33;33.86;100352.69;4820413;29;20923;-93
2023/08/21 10:44:36;;;;;;;1.02;0.93;;;;;;;36.15;34.90;100365.81;4817116;29;20065;-93
2023/08/21 10:47:17;;;;;;;2.92;2.22;;;;;;;35.98;35.53;100364.56;4820258;29;20046;-94
2023/08/21 10:49:45;;;;;;;1.35;1.25;;;;;;;36.40;34.60;100357.53;4818258;29;20129;-94
2023/08/21 10:52:18;;;;;;;1.27;1.17;;;;;;;36.30;36.06;100360.44;4821394;29;20060;-93
2023/08/21 10:54:48;;;;;;;1.38;1.27;;;;;;;36.25;34.54;100357.88;4804132;29;20046;-93
2023/08/21 10:57:14;;;;;;;1.77;1.52;;;;;;;36.54;36.20;100361.47;4830100;29;20488;-93
2023/08/21 10:59:54;;;;;;;1.38;1.27;;;;;;;36.40;34.03;100361.19;4801596;29;20054;-93
2023/08/21 11:02:20;;;;;;;1.58;1.40;;;;;;;36.42;32.95;100358.44;4811442;29;20069;-94
2023/08/21 11:04:46;;;;;;;1.85;1.75;;;;;;;36.45;33.92;100353.56;4834079;29;20093;-92
2023/08/21 11:07:12;;;;;;;2.97;1.75;;;;;;;36.21;35.36;100335.22;4805208;29;20082;-93
2023/08/21 11:09:38;;;;;;;1.50;1.40;;;;;;;36.24;34.48;100339.78;4800216;29;20055;-93
2023/08/21 11:12:09;;;;;;;1.65;1.38;;;;;;;36.25;34.39;100354.97;4799977;29;20163;-92
2023/08/21 11:14:35;;;;;;;2.47;2.08;;;;;;;36.22;33.59;100341.78;4829150;29;20105;-92
2023/08/21 11:17:01;;;;;;;0.85;0.85;;;;;;;36.40;33.68;100349.63;4811573;29;20133;-94
2023/08/21 11:19:26;;;;;;;2.83;2.08;;;;;;;36.48;34.63;100349.44;4819403;29;20152;-92
2023/08/21 11:21:52;;;;;;;2.00;1.80;;;;;;;36.28;34.33;100345.09;4831958;29;20575;-92